foto1
foto1
foto1
foto1
foto1


Bienvenue sur le site de l'Aéroclub Dassault Breguet Biarritz

Actualités:

METAR LFBZ

LFBZ 251200Z AUTO 00000KT CAVOK 18/17 Q1014 TEMPO 4000 -SHRA BKN015 SCT030CB

TAF LFBZ

TAF TAF LFBZ 251100Z 2512/2612 30005KT 9999 BKN015 SCT040 BKN070 TEMPO 2512/2518 4000 -SHRA SCT050TCU PROB40 TEMPO 2512/2514 -TSRA BKN015 SCT030CB BECMG 2522/2524 4000 BR BKN005 TEMPO 2600/2608 2000 BR BKN003 BECMG 2608/2610 SCT020 BKN040 TEMPO 2610/2612 2000 SHRA BKN020TCU

Accès Membres

Réserver un avion

Pour réserver un avion cliquer sur le logo Openflyers

logo openflyers

Flux RSS

Aerobuzz

Actualité et information aéronautique